createdAt,value
2017-03-27T00:00:01.618Z,834.76
2017-03-27T00:00:06.045Z,834.71
2017-03-27T00:00:10.264Z,834.74
2017-03-27T00:00:14.688Z,834.75
2017-03-27T00:00:19.001Z,834.73
2017-03-27T00:00:23.193Z,834.7
2017-03-27T00:00:27.519Z,834.69
2017-03-27T00:00:31.968Z,834.7
2017-03-27T00:00:36.278Z,834.7
2017-03-27T00:00:40.601Z,834.68
2017-03-27T00:00:45.029Z,834.7
2017-03-27T00:00:49.345Z,834.72
2017-03-27T00:00:53.812Z,834.7
2017-03-27T00:00:58.126Z,834.67
2017-03-27T00:01:02.432Z,834.71
2017-03-27T00:01:06.751Z,834.66
2017-03-27T00:01:11.176Z,834.7
2017-03-27T00:01:15.605Z,834.68
2017-03-27T00:01:20.049Z,834.69
2017-03-27T00:01:24.411Z,834.7
2017-03-27T00:01:28.886Z,834.7
2017-03-27T00:01:33.084Z,834.68
2017-03-27T00:01:37.159Z,834.68
2017-03-27T00:01:41.481Z,834.66
2017-03-27T00:01:45.923Z,834.66
2017-03-27T00:01:50.242Z,834.67
2017-03-27T00:01:54.675Z,834.62
2017-03-27T00:01:59.005Z,834.68
2017-03-27T00:02:03.444Z,834.65
2017-03-27T00:02:07.768Z,834.68
2017-03-27T00:02:12.193Z,834.67
2017-03-27T00:02:16.516Z,834.66
2017-03-27T00:02:20.958Z,834.67
2017-03-27T00:02:25.154Z,834.67
2017-03-27T00:02:29.588Z,834.69
2017-03-27T00:02:34.012Z,834.64
2017-03-27T00:02:38.233Z,834.65
2017-03-27T00:02:42.315Z,834.64
2017-03-27T00:02:46.633Z,834.65
2017-03-27T00:02:50.951Z,834.65
2017-03-27T00:02:55.404Z,834.65
2017-03-27T00:02:59.612Z,834.64
2017-03-27T00:03:04.052Z,834.67
2017-03-27T00:03:08.264Z,834.64
2017-03-27T00:03:12.715Z,834.67
2017-03-27T00:03:16.951Z,834.68
2017-03-27T00:03:21.283Z,834.61
2017-03-27T00:03:25.617Z,834.65
2017-03-27T00:03:29.947Z,834.66
2017-03-27T00:03:34.277Z,834.69
2017-03-27T00:03:38.487Z,834.69
2017-03-27T00:03:42.930Z,834.67
2017-03-27T00:03:47.138Z,834.65
2017-03-27T00:03:51.589Z,834.69
2017-03-27T00:03:55.934Z,834.68
2017-03-27T00:04:00.281Z,834.66
2017-03-27T00:04:04.479Z,834.69
2017-03-27T00:04:08.924Z,834.69
2017-03-27T00:04:13.358Z,834.7
2017-03-27T00:04:17.795Z,834.74
2017-03-27T00:04:22.230Z,834.7
2017-03-27T00:04:26.673Z,834.7
2017-03-27T00:04:31.127Z,834.69
2017-03-27T00:04:35.583Z,834.71
2017-03-27T00:04:39.896Z,834.7
2017-03-27T00:04:44.207Z,834.69
2017-03-27T00:04:48.637Z,834.67
2017-03-27T00:04:53.081Z,834.7
2017-03-27T00:04:57.547Z,834.67
2017-03-27T00:05:02.284Z,834.7
2017-03-27T00:05:06.716Z,834.68
2017-03-27T00:05:11.148Z,834.67
2017-03-27T00:05:15.578Z,834.7
2017-03-27T00:05:20.045Z,834.68
2017-03-27T00:05:24.481Z,834.68
2017-03-27T00:05:28.797Z,834.65
2017-03-27T00:05:33.121Z,834.68
2017-03-27T00:05:37.445Z,834.74
2017-03-27T00:05:41.889Z,834.74
2017-03-27T00:05:46.207Z,834.72
2017-03-27T00:05:50.405Z,834.7
2017-03-27T00:05:54.603Z,834.71
2017-03-27T00:05:58.916Z,834.74
2017-03-27T00:06:03.469Z,834.71
2017-03-27T00:06:07.669Z,834.72
2017-03-27T00:06:11.874Z,834.7
2017-03-27T00:06:16.090Z,834.74
2017-03-27T00:06:20.550Z,834.71
2017-03-27T00:06:24.979Z,834.7
2017-03-27T00:06:29.296Z,834.73
2017-03-27T00:06:33.610Z,834.73
2017-03-27T00:06:38.061Z,834.74
2017-03-27T00:06:42.507Z,834.74
2017-03-27T00:06:46.821Z,834.76
2017-03-27T00:06:51.022Z,834.71
2017-03-27T00:06:55.338Z,834.73
2017-03-27T00:06:59.657Z,834.72
2017-03-27T00:07:03.965Z,834.76
2017-03-27T00:07:08.404Z,834.74
2017-03-27T00:07:12.733Z,834.78
2017-03-27T00:07:16.952Z,834.78
2017-03-27T00:07:21.388Z,834.77
2017-03-27T00:07:25.594Z,834.77
2017-03-27T00:07:29.579Z,834.78
2017-03-27T00:07:33.799Z,834.79
2017-03-27T00:07:38.238Z,834.79
2017-03-27T00:07:42.341Z,834.77
2017-03-27T00:07:46.790Z,834.78
2017-03-27T00:07:50.998Z,834.8
2017-03-27T00:07:55.104Z,834.77
2017-03-27T00:07:59.422Z,834.79
2017-03-27T00:08:03.976Z,834.75
2017-03-27T00:08:08.418Z,834.76
2017-03-27T00:08:12.858Z,834.79
2017-03-27T00:08:17.192Z,834.77
2017-03-27T00:08:21.528Z,834.78
2017-03-27T00:08:25.999Z,834.81
2017-03-27T00:08:30.207Z,834.78
2017-03-27T00:08:34.527Z,834.8
2017-03-27T00:08:38.975Z,834.8
2017-03-27T00:08:43.301Z,834.84
2017-03-27T00:08:47.628Z,834.81
2017-03-27T00:08:51.964Z,834.78
2017-03-27T00:08:56.060Z,834.81
2017-03-27T00:09:00.282Z,834.82
2017-03-27T00:09:04.716Z,834.77
2017-03-27T00:09:09.158Z,834.81
2017-03-27T00:09:13.632Z,834.81
2017-03-27T00:09:18.070Z,834.79
2017-03-27T00:09:22.506Z,834.79
2017-03-27T00:09:26.957Z,834.78
2017-03-27T00:09:31.192Z,834.78
2017-03-27T00:09:35.282Z,834.76
2017-03-27T00:09:39.728Z,834.78
2017-03-27T00:09:44.057Z,834.76
2017-03-27T00:09:48.408Z,834.81
2017-03-27T00:09:52.617Z,834.8
2017-03-27T00:09:57.071Z,834.8
2017-03-27T00:10:01.525Z,834.78
2017-03-27T00:10:05.842Z,834.74
2017-03-27T00:10:09.928Z,834.77
2017-03-27T00:10:14.245Z,834.79
2017-03-27T00:10:18.576Z,834.8
2017-03-27T00:10:23.013Z,834.81
2017-03-27T00:10:27.455Z,834.8
2017-03-27T00:10:31.664Z,834.76
2017-03-27T00:10:35.975Z,834.78
2017-03-27T00:10:40.174Z,834.74
2017-03-27T00:10:44.391Z,834.77
2017-03-27T00:10:48.852Z,834.75
2017-03-27T00:10:53.069Z,834.69
2017-03-27T00:10:57.390Z,834.7
2017-03-27T00:11:01.473Z,834.66
2017-03-27T00:11:05.946Z,834.7
2017-03-27T00:11:10.295Z,834.75
2017-03-27T00:11:14.725Z,834.75
2017-03-27T00:11:19.043Z,834.77
2017-03-27T00:11:23.245Z,834.76
2017-03-27T00:11:27.671Z,834.72
2017-03-27T00:11:31.985Z,834.71
2017-03-27T00:11:36.428Z,834.67
2017-03-27T00:11:40.853Z,834.7
2017-03-27T00:11:45.284Z,834.72
2017-03-27T00:11:49.598Z,834.7
2017-03-27T00:11:54.030Z,834.69
2017-03-27T00:11:58.231Z,834.71
2017-03-27T00:12:02.541Z,834.71
2017-03-27T00:12:06.976Z,834.69
2017-03-27T00:12:11.297Z,834.71
2017-03-27T00:12:15.611Z,834.71
2017-03-27T00:12:19.937Z,834.69
2017-03-27T00:12:24.369Z,834.66
2017-03-27T00:12:28.681Z,834.67
2017-03-27T00:12:33.020Z,834.67
2017-03-27T00:12:37.451Z,834.69
2017-03-27T00:12:41.884Z,834.65
2017-03-27T00:12:46.325Z,834.66
2017-03-27T00:12:50.768Z,834.63
2017-03-27T00:12:55.099Z,834.65
2017-03-27T00:12:59.421Z,834.65
2017-03-27T00:13:03.738Z,834.63
2017-03-27T00:13:08.180Z,834.64
2017-03-27T00:13:12.500Z,834.62
2017-03-27T00:13:16.934Z,834.66
2017-03-27T00:13:21.375Z,834.62
2017-03-27T00:13:25.820Z,834.63
2017-03-27T00:13:30.260Z,834.65
2017-03-27T00:13:34.358Z,834.61
2017-03-27T00:13:38.795Z,834.63
2017-03-27T00:13:43.152Z,834.65
2017-03-27T00:13:47.591Z,834.61
2017-03-27T00:13:51.907Z,834.63
2017-03-27T00:13:56.353Z,834.64
2017-03-27T00:14:00.676Z,834.62
2017-03-27T00:14:04.991Z,834.63
2017-03-27T00:14:09.447Z,834.63
2017-03-27T00:14:13.925Z,834.59
2017-03-27T00:14:18.378Z,834.56
2017-03-27T00:14:22.635Z,834.57
2017-03-27T00:14:27.080Z,834.6
2017-03-27T00:14:31.395Z,834.58
2017-03-27T00:14:35.717Z,834.59
2017-03-27T00:14:40.154Z,834.61
2017-03-27T00:14:44.592Z,834.59
2017-03-27T00:14:49.021Z,834.59
2017-03-27T00:14:53.450Z,834.6
2017-03-27T00:14:57.800Z,834.57
2017-03-27T00:15:02.000Z,834.58
2017-03-27T00:15:06.316Z,834.58
2017-03-27T00:15:10.758Z,834.56
2017-03-27T00:15:15.214Z,834.58
2017-03-27T00:15:19.539Z,834.54
2017-03-27T00:15:23.855Z,834.55
2017-03-27T00:15:28.288Z,834.58
2017-03-27T00:15:32.606Z,834.58
2017-03-27T00:15:36.919Z,834.56
2017-03-27T00:15:41.378Z,834.6
2017-03-27T00:15:45.832Z,834.56
2017-03-27T00:15:50.168Z,834.56
2017-03-27T00:15:54.605Z,834.56
2017-03-27T00:15:58.813Z,834.54
2017-03-27T00:16:03.265Z,834.56
2017-03-27T00:16:07.587Z,834.55
2017-03-27T00:16:11.908Z,834.53
2017-03-27T00:16:16.341Z,834.52
2017-03-27T00:16:20.770Z,834.51
2017-03-27T00:16:25.097Z,834.52
2017-03-27T00:16:29.414Z,834.53
2017-03-27T00:16:33.730Z,834.49
2017-03-27T00:16:37.930Z,834.49
2017-03-27T00:16:42.405Z,834.5
2017-03-27T00:16:46.849Z,834.5
2017-03-27T00:16:51.275Z,834.53
2017-03-27T00:16:55.477Z,834.5
2017-03-27T00:16:59.580Z,834.51
2017-03-27T00:17:03.876Z,834.51
2017-03-27T00:17:08.313Z,834.52
2017-03-27T00:17:12.627Z,834.49
2017-03-27T00:17:17.073Z,834.51
2017-03-27T00:17:21.509Z,834.5
2017-03-27T00:17:25.946Z,834.5
2017-03-27T00:17:30.275Z,834.48
2017-03-27T00:17:34.722Z,834.48
2017-03-27T00:17:39.157Z,834.49
2017-03-27T00:17:43.662Z,834.48
2017-03-27T00:17:48.103Z,834.47
2017-03-27T00:17:52.538Z,834.45
2017-03-27T00:17:56.882Z,834.45
2017-03-27T00:18:01.221Z,834.47
2017-03-27T00:18:05.704Z,834.44
2017-03-27T00:18:10.024Z,834.47
2017-03-27T00:18:14.338Z,834.45
2017-03-27T00:18:18.778Z,834.41
2017-03-27T00:18:23.240Z,834.41
2017-03-27T00:18:27.676Z,834.36
2017-03-27T00:18:32.117Z,834.39
2017-03-27T00:18:36.440Z,834.43
2017-03-27T00:18:40.764Z,834.44
2017-03-27T00:18:45.200Z,834.39
2017-03-27T00:18:49.647Z,834.42
2017-03-27T00:18:53.969Z,834.42
2017-03-27T00:18:58.296Z,834.39
2017-03-27T00:19:02.770Z,834.39
2017-03-27T00:19:07.208Z,834.38
2017-03-27T00:19:11.426Z,834.34
2017-03-27T00:19:15.878Z,834.37
2017-03-27T00:19:20.356Z,834.35
2017-03-27T00:19:24.791Z,834.34
2017-03-27T00:19:29.128Z,834.38
2017-03-27T00:19:33.322Z,834.34
2017-03-27T00:19:37.638Z,834.29
2017-03-27T00:19:42.079Z,834.31
2017-03-27T00:19:46.513Z,834.33
2017-03-27T00:19:50.835Z,834.35
2017-03-27T00:19:55.278Z,834.3
2017-03-27T00:19:59.715Z,834.33
2017-03-27T00:20:04.141Z,834.31
2017-03-27T00:20:08.562Z,834.31
2017-03-27T00:20:12.877Z,834.3
2017-03-27T00:20:17.301Z,834.29
2017-03-27T00:20:21.734Z,834.29
2017-03-27T00:20:26.162Z,834.26
2017-03-27T00:20:30.592Z,834.31
2017-03-27T00:20:35.024Z,834.27
2017-03-27T00:20:39.454Z,834.23
2017-03-27T00:20:43.649Z,834.22
2017-03-27T00:20:47.865Z,834.18
2017-03-27T00:20:52.298Z,834.2
2017-03-27T00:20:56.735Z,834.24
2017-03-27T00:21:01.159Z,834.24
2017-03-27T00:21:05.777Z,834.18
2017-03-27T00:21:10.210Z,834.22
2017-03-27T00:21:14.634Z,834.22
2017-03-27T00:21:19.081Z,834.19
2017-03-27T00:21:23.541Z,834.16
2017-03-27T00:21:27.861Z,834.17
2017-03-27T00:21:32.289Z,834.18
2017-03-27T00:21:36.733Z,834.17
2017-03-27T00:21:41.161Z,834.15
2017-03-27T00:21:45.403Z,834.16
2017-03-27T00:21:49.716Z,834.15
2017-03-27T00:21:54.142Z,834.16
2017-03-27T00:21:58.464Z,834.15
2017-03-27T00:22:02.898Z,834.18
2017-03-27T00:22:07.212Z,834.14
2017-03-27T00:22:11.524Z,834.15
2017-03-27T00:22:15.843Z,834.16
2017-03-27T00:22:20.276Z,834.15
2017-03-27T00:22:24.717Z,834.1
2017-03-27T00:22:29.190Z,834.15
2017-03-27T00:22:33.650Z,834.14
2017-03-27T00:22:38.063Z,834.11
2017-03-27T00:22:42.406Z,834.1
2017-03-27T00:22:46.612Z,834.09
2017-03-27T00:22:51.048Z,834.08
2017-03-27T00:22:55.367Z,834.06
2017-03-27T00:22:59.689Z,834.11
2017-03-27T00:23:04.126Z,834.11
2017-03-27T00:23:08.572Z,834.08
2017-03-27T00:23:13.019Z,834.09
2017-03-27T00:23:17.458Z,834.09
2017-03-27T00:23:21.908Z,834.06
2017-03-27T00:23:26.389Z,834.07
2017-03-27T00:23:30.712Z,834.05
2017-03-27T00:23:34.937Z,834.06
2017-03-27T00:23:39.409Z,834.08
2017-03-27T00:23:43.619Z,834.07
2017-03-27T00:23:48.051Z,834.07
2017-03-27T00:23:52.495Z,834.04
2017-03-27T00:23:56.953Z,834.02
2017-03-27T00:24:01.386Z,834.05
2017-03-27T00:24:05.894Z,834.05
2017-03-27T00:24:10.225Z,833.95
2017-03-27T00:24:14.454Z,834.03
2017-03-27T00:24:18.786Z,834.05
2017-03-27T00:24:23.233Z,834.05
2017-03-27T00:24:27.582Z,834.04
2017-03-27T00:24:31.785Z,834.03
2017-03-27T00:24:36.104Z,834.03
2017-03-27T00:24:40.536Z,833.94
2017-03-27T00:24:44.972Z,833.99
2017-03-27T00:24:49.407Z,834.03
2017-03-27T00:24:53.716Z,833.99
2017-03-27T00:24:58.156Z,833.94
2017-03-27T00:25:02.472Z,833.97
2017-03-27T00:25:06.918Z,833.96
2017-03-27T00:25:11.352Z,833.95
2017-03-27T00:25:15.781Z,833.93
2017-03-27T00:25:19.897Z,833.95
2017-03-27T00:25:24.354Z,833.99
2017-03-27T00:25:28.662Z,833.95
2017-03-27T00:25:32.974Z,833.96
2017-03-27T00:25:37.402Z,833.95
2017-03-27T00:25:41.834Z,834
2017-03-27T00:25:46.272Z,833.94
2017-03-27T00:25:50.697Z,833.97
2017-03-27T00:25:55.133Z,833.97
2017-03-27T00:25:59.591Z,834.01
2017-03-27T00:26:03.903Z,833.95
2017-03-27T00:26:08.102Z,833.98
2017-03-27T00:26:12.423Z,833.96
2017-03-27T00:26:16.748Z,833.94
2017-03-27T00:26:21.182Z,833.96
2017-03-27T00:26:25.604Z,834.01
2017-03-27T00:26:29.911Z,834
2017-03-27T00:26:34.118Z,833.97
2017-03-27T00:26:38.565Z,834.01
2017-03-27T00:26:43.004Z,833.99
2017-03-27T00:26:47.197Z,834.01
2017-03-27T00:26:51.634Z,833.98
2017-03-27T00:26:56.072Z,833.98
2017-03-27T00:27:00.510Z,833.99
2017-03-27T00:27:04.937Z,834
2017-03-27T00:27:09.372Z,834.02
2017-03-27T00:27:13.806Z,834
2017-03-27T00:27:18.242Z,834.01
2017-03-27T00:27:22.562Z,833.96
2017-03-27T00:27:27.008Z,833.96
2017-03-27T00:27:31.315Z,834
2017-03-27T00:27:35.748Z,833.99
2017-03-27T00:27:40.192Z,833.99
2017-03-27T00:27:44.641Z,833.98
2017-03-27T00:27:48.961Z,833.99
2017-03-27T00:27:53.282Z,834
2017-03-27T00:27:57.613Z,833.97
2017-03-27T00:28:02.193Z,833.97
2017-03-27T00:28:06.630Z,833.94
2017-03-27T00:28:10.706Z,833.98
2017-03-27T00:28:15.146Z,833.94
2017-03-27T00:28:19.589Z,833.98
2017-03-27T00:28:24.022Z,833.97
2017-03-27T00:28:28.342Z,833.97
2017-03-27T00:28:32.777Z,833.95
2017-03-27T00:28:37.103Z,833.94
2017-03-27T00:28:41.428Z,833.96
2017-03-27T00:28:45.629Z,833.95
2017-03-27T00:28:49.951Z,833.94
2017-03-27T00:28:54.147Z,833.93
2017-03-27T00:28:58.589Z,834
2017-03-27T00:29:03.014Z,833.97
2017-03-27T00:29:07.441Z,833.95
2017-03-27T00:29:11.879Z,833.95
2017-03-27T00:29:16.314Z,833.93
2017-03-27T00:29:20.509Z,833.96
2017-03-27T00:29:25.047Z,833.97
2017-03-27T00:29:29.360Z,833.97
2017-03-27T00:29:33.795Z,833.94
2017-03-27T00:29:37.998Z,833.98
2017-03-27T00:29:42.427Z,833.96
2017-03-27T00:29:46.860Z,833.9
2017-03-27T00:29:51.302Z,833.93
2017-03-27T00:29:55.661Z,833.94
2017-03-27T00:29:59.975Z,833.95
2017-03-27T00:30:04.295Z,833.91
2017-03-27T00:30:08.605Z,833.92
2017-03-27T00:30:13.037Z,833.95
2017-03-27T00:30:17.467Z,833.94
2017-03-27T00:30:21.782Z,833.98
2017-03-27T00:30:26.107Z,833.98
2017-03-27T00:30:30.455Z,833.92
2017-03-27T00:30:34.763Z,833.97
2017-03-27T00:30:39.078Z,833.96
2017-03-27T00:30:43.507Z,833.96
2017-03-27T00:30:47.942Z,833.95
2017-03-27T00:30:52.273Z,833.95
2017-03-27T00:30:56.580Z,833.94
2017-03-27T00:31:00.769Z,833.88
2017-03-27T00:31:05.555Z,833.93
2017-03-27T00:31:09.994Z,833.89
2017-03-27T00:31:14.314Z,833.89
2017-03-27T00:31:18.744Z,833.93
2017-03-27T00:31:22.963Z,833.93
2017-03-27T00:31:27.398Z,833.91
2017-03-27T00:31:31.821Z,833.94
2017-03-27T00:31:36.134Z,833.86
2017-03-27T00:31:40.568Z,833.96
2017-03-27T00:31:44.996Z,833.93
2017-03-27T00:31:49.424Z,833.98
2017-03-27T00:31:53.861Z,833.93
2017-03-27T00:31:58.211Z,833.93
2017-03-27T00:32:02.642Z,833.91
2017-03-27T00:32:06.729Z,833.96
2017-03-27T00:32:10.950Z,833.9
2017-03-27T00:32:15.262Z,833.89
2017-03-27T00:32:19.701Z,833.89
2017-03-27T00:32:24.134Z,833.94
2017-03-27T00:32:28.472Z,833.92
2017-03-27T00:32:32.906Z,833.91
2017-03-27T00:32:37.229Z,833.89
2017-03-27T00:32:41.447Z,833.93
2017-03-27T00:32:45.798Z,833.88
2017-03-27T00:32:50.239Z,833.91
2017-03-27T00:32:54.449Z,833.89
2017-03-27T00:32:58.890Z,833.9
2017-03-27T00:33:03.377Z,833.88
2017-03-27T00:33:07.576Z,833.89
2017-03-27T00:33:12.020Z,833.86
2017-03-27T00:33:16.374Z,833.91
2017-03-27T00:33:20.812Z,833.91
2017-03-27T00:33:25.135Z,833.88
2017-03-27T00:33:29.571Z,833.89
2017-03-27T00:33:34.024Z,833.86
2017-03-27T00:33:38.466Z,833.85
2017-03-27T00:33:42.910Z,833.84
2017-03-27T00:33:47.358Z,833.83
2017-03-27T00:33:51.669Z,833.85
2017-03-27T00:33:56.119Z,833.87
2017-03-27T00:34:00.447Z,833.84
2017-03-27T00:34:04.888Z,833.82
2017-03-27T00:34:09.234Z,833.84
2017-03-27T00:34:13.555Z,833.8
2017-03-27T00:34:17.988Z,833.82
2017-03-27T00:34:22.423Z,833.78
2017-03-27T00:34:26.748Z,833.81
2017-03-27T00:34:30.978Z,833.75
2017-03-27T00:34:35.420Z,833.77
2017-03-27T00:34:39.848Z,833.8
2017-03-27T00:34:44.165Z,833.76
2017-03-27T00:34:48.599Z,833.77
2017-03-27T00:34:52.931Z,833.73
2017-03-27T00:34:57.247Z,833.74
2017-03-27T00:35:01.331Z,833.7
2017-03-27T00:35:05.785Z,833.75
2017-03-27T00:35:10.216Z,833.75
2017-03-27T00:35:14.527Z,833.72
2017-03-27T00:35:18.955Z,833.75
2017-03-27T00:35:23.270Z,833.75
2017-03-27T00:35:27.712Z,833.73
2017-03-27T00:35:32.146Z,833.74
2017-03-27T00:35:36.607Z,833.73
2017-03-27T00:35:41.076Z,833.73
2017-03-27T00:35:45.396Z,833.72
2017-03-27T00:35:49.598Z,833.74
2017-03-27T00:35:53.799Z,833.64
2017-03-27T00:35:57.992Z,833.67
2017-03-27T00:36:02.417Z,833.71
2017-03-27T00:36:06.736Z,833.67
2017-03-27T00:36:11.159Z,833.7
2017-03-27T00:36:15.356Z,833.71
2017-03-27T00:36:19.790Z,833.66
2017-03-27T00:36:24.228Z,833.68
2017-03-27T00:36:28.660Z,833.69
2017-03-27T00:36:33.096Z,833.68
2017-03-27T00:36:37.415Z,833.68
2017-03-27T00:36:41.787Z,833.68
2017-03-27T00:36:46.108Z,833.66
2017-03-27T00:36:50.539Z,833.65
2017-03-27T00:36:54.991Z,833.68
2017-03-27T00:36:59.305Z,833.68
2017-03-27T00:37:03.716Z,833.66
2017-03-27T00:37:08.173Z,833.63
2017-03-27T00:37:12.605Z,833.64
2017-03-27T00:37:17.050Z,833.63
2017-03-27T00:37:21.363Z,833.65
2017-03-27T00:37:25.685Z,833.67
2017-03-27T00:37:30.117Z,833.67
2017-03-27T00:37:34.432Z,833.65
2017-03-27T00:37:38.642Z,833.61
2017-03-27T00:37:43.078Z,833.61
2017-03-27T00:37:47.435Z,833.63
2017-03-27T00:37:51.789Z,833.6
2017-03-27T00:37:55.987Z,833.62
2017-03-27T00:38:00.302Z,833.6
2017-03-27T00:38:04.953Z,833.59
2017-03-27T00:38:09.382Z,833.6
2017-03-27T00:38:13.697Z,833.6
2017-03-27T00:38:18.190Z,833.63
2017-03-27T00:38:22.531Z,833.63
2017-03-27T00:38:26.977Z,833.6
2017-03-27T00:38:31.416Z,833.62
2017-03-27T00:38:35.847Z,833.63
2017-03-27T00:38:40.058Z,833.59
2017-03-27T00:38:44.494Z,833.59
2017-03-27T00:38:48.938Z,833.53
2017-03-27T00:38:53.378Z,833.61
2017-03-27T00:38:57.690Z,833.57
2017-03-27T00:39:02.120Z,833.58
2017-03-27T00:39:06.315Z,833.6
2017-03-27T00:39:10.756Z,833.59
2017-03-27T00:39:14.951Z,833.62
2017-03-27T00:39:19.395Z,833.6
2017-03-27T00:39:23.851Z,833.57
2017-03-27T00:39:28.286Z,833.58
2017-03-27T00:39:32.716Z,833.58
2017-03-27T00:39:37.152Z,833.63
2017-03-27T00:39:41.229Z,833.64
2017-03-27T00:39:45.670Z,833.62
2017-03-27T00:39:49.985Z,833.65
2017-03-27T00:39:54.300Z,833.62
2017-03-27T00:39:58.737Z,833.55
2017-03-27T00:40:02.940Z,833.57
2017-03-27T00:40:07.131Z,833.58
2017-03-27T00:40:11.330Z,833.6
2017-03-27T00:40:15.734Z,833.61
2017-03-27T00:40:19.939Z,833.61
2017-03-27T00:40:24.264Z,833.59
2017-03-27T00:40:28.702Z,833.62
2017-03-27T00:40:33.194Z,833.58
2017-03-27T00:40:37.527Z,833.64
2017-03-27T00:40:41.969Z,833.6
2017-03-27T00:40:46.299Z,833.62
2017-03-27T00:40:50.614Z,833.65
2017-03-27T00:40:54.950Z,833.64
2017-03-27T00:40:59.161Z,833.63
2017-03-27T00:41:03.382Z,833.59
2017-03-27T00:41:07.823Z,833.63
2017-03-27T00:41:12.142Z,833.63
2017-03-27T00:41:16.616Z,833.61
2017-03-27T00:41:21.053Z,833.64
2017-03-27T00:41:25.493Z,833.61
2017-03-27T00:41:29.710Z,833.61
2017-03-27T00:41:34.035Z,833.6
2017-03-27T00:41:38.355Z,833.58
2017-03-27T00:41:42.682Z,833.61
2017-03-27T00:41:47.126Z,833.56
2017-03-27T00:41:51.560Z,833.55
2017-03-27T00:41:55.983Z,833.58
2017-03-27T00:42:00.412Z,833.59
2017-03-27T00:42:04.835Z,833.59
2017-03-27T00:42:09.142Z,833.6
2017-03-27T00:42:13.570Z,833.62
2017-03-27T00:42:18.007Z,833.6
2017-03-27T00:42:22.325Z,833.61
2017-03-27T00:42:26.762Z,833.61
2017-03-27T00:42:31.104Z,833.6
2017-03-27T00:42:35.300Z,833.6
2017-03-27T00:42:39.627Z,833.65
2017-03-27T00:42:44.062Z,833.62
2017-03-27T00:42:48.513Z,833.6
2017-03-27T00:42:52.954Z,833.65
2017-03-27T00:42:57.411Z,833.62
2017-03-27T00:43:01.620Z,833.63
2017-03-27T00:43:06.310Z,833.59
2017-03-27T00:43:10.754Z,833.59
2017-03-27T00:43:15.196Z,833.6
2017-03-27T00:43:19.635Z,833.58
2017-03-27T00:43:24.077Z,833.53
2017-03-27T00:43:28.425Z,833.55
2017-03-27T00:43:32.873Z,833.59
2017-03-27T00:43:37.307Z,833.58
2017-03-27T00:43:41.627Z,833.61
2017-03-27T00:43:46.066Z,833.59
2017-03-27T00:43:50.518Z,833.61
2017-03-27T00:43:54.842Z,833.59
2017-03-27T00:43:59.167Z,833.6
2017-03-27T00:44:03.669Z,833.63
2017-03-27T00:44:07.880Z,833.61
2017-03-27T00:44:12.206Z,833.61
2017-03-27T00:44:16.522Z,833.62
2017-03-27T00:44:20.865Z,833.6
2017-03-27T00:44:25.192Z,833.57
2017-03-27T00:44:29.929Z,833.63
2017-03-27T00:44:34.133Z,833.56
2017-03-27T00:44:38.571Z,833.59
2017-03-27T00:44:42.895Z,833.59
2017-03-27T00:44:47.331Z,833.58
2017-03-27T00:44:51.760Z,833.57
2017-03-27T00:44:56.221Z,833.57
2017-03-27T00:45:00.540Z,833.6
2017-03-27T00:45:05.170Z,833.57
2017-03-27T00:45:09.599Z,833.59
2017-03-27T00:45:14.097Z,833.61
2017-03-27T00:45:18.403Z,833.58
2017-03-27T00:45:22.726Z,833.6
2017-03-27T00:45:27.157Z,833.6
2017-03-27T00:45:31.582Z,833.55
2017-03-27T00:45:36.005Z,833.59
2017-03-27T00:45:40.454Z,833.57
2017-03-27T00:45:44.780Z,833.59
2017-03-27T00:45:49.091Z,833.56
2017-03-27T00:45:53.529Z,833.57
2017-03-27T00:45:57.973Z,833.59
2017-03-27T00:46:02.053Z,833.55
2017-03-27T00:46:06.364Z,833.58
2017-03-27T00:46:10.699Z,833.56
2017-03-27T00:46:15.019Z,833.57
2017-03-27T00:46:19.449Z,833.56
2017-03-27T00:46:23.761Z,833.54
2017-03-27T00:46:28.084Z,833.55
2017-03-27T00:46:32.519Z,833.54
2017-03-27T00:46:36.832Z,833.57
2017-03-27T00:46:41.266Z,833.56
2017-03-27T00:46:45.703Z,833.54
2017-03-27T00:46:50.020Z,833.55
2017-03-27T00:46:54.448Z,833.56
2017-03-27T00:46:58.567Z,833.54
2017-03-27T00:47:03.066Z,833.51
2017-03-27T00:47:07.375Z,833.51
2017-03-27T00:47:11.696Z,833.5
2017-03-27T00:47:16.129Z,833.53
2017-03-27T00:47:20.563Z,833.49
2017-03-27T00:47:24.997Z,833.5
2017-03-27T00:47:29.432Z,833.44
2017-03-27T00:47:33.866Z,833.45
2017-03-27T00:47:38.311Z,833.47
2017-03-27T00:47:42.745Z,833.42
2017-03-27T00:47:47.072Z,833.42
2017-03-27T00:47:51.543Z,833.45
2017-03-27T00:47:55.870Z,833.42
2017-03-27T00:48:00.191Z,833.39
2017-03-27T00:48:04.651Z,833.39
2017-03-27T00:48:08.961Z,833.41
2017-03-27T00:48:13.277Z,833.44
2017-03-27T00:48:17.710Z,833.43
2017-03-27T00:48:22.034Z,833.4
2017-03-27T00:48:26.359Z,833.44
2017-03-27T00:48:30.828Z,833.38
2017-03-27T00:48:35.150Z,833.4
2017-03-27T00:48:39.471Z,833.44
2017-03-27T00:48:43.913Z,833.42
2017-03-27T00:48:48.248Z,833.41
2017-03-27T00:48:52.578Z,833.43
2017-03-27T00:48:57.011Z,833.4
2017-03-27T00:49:01.447Z,833.4
2017-03-27T00:49:05.702Z,833.38
2017-03-27T00:49:10.141Z,833.36
2017-03-27T00:49:14.578Z,833.37
2017-03-27T00:49:18.784Z,833.41
2017-03-27T00:49:23.099Z,833.35
2017-03-27T00:49:27.417Z,833.37
2017-03-27T00:49:32.062Z,833.37
2017-03-27T00:49:36.493Z,833.36
2017-03-27T00:49:40.691Z,833.35
2017-03-27T00:49:45.001Z,833.37
2017-03-27T00:49:49.446Z,833.36
2017-03-27T00:49:53.774Z,833.35
2017-03-27T00:49:58.099Z,833.33
2017-03-27T00:50:02.647Z,833.35
2017-03-27T00:50:07.082Z,833.32
2017-03-27T00:50:11.279Z,833.34
2017-03-27T00:50:15.704Z,833.33
2017-03-27T00:50:20.012Z,833.32
2017-03-27T00:50:24.331Z,833.3
2017-03-27T00:50:28.525Z,833.34
2017-03-27T00:50:32.949Z,833.3
2017-03-27T00:50:37.376Z,833.29
2017-03-27T00:50:41.805Z,833.31
2017-03-27T00:50:46.234Z,833.33
2017-03-27T00:50:50.431Z,833.31
2017-03-27T00:50:54.737Z,833.33
2017-03-27T00:50:58.932Z,833.28
2017-03-27T00:51:03.355Z,833.25
2017-03-27T00:51:07.680Z,833.25
2017-03-27T00:51:12.139Z,833.27
2017-03-27T00:51:16.595Z,833.24
2017-03-27T00:51:21.048Z,833.22
2017-03-27T00:51:25.477Z,833.22
2017-03-27T00:51:29.788Z,833.23
2017-03-27T00:51:34.098Z,833.23
2017-03-27T00:51:38.423Z,833.23
2017-03-27T00:51:42.731Z,833.24
2017-03-27T00:51:47.046Z,833.21
2017-03-27T00:51:51.352Z,833.19
2017-03-27T00:51:55.840Z,833.25
2017-03-27T00:51:59.801Z,833.25
2017-03-27T00:52:04.109Z,833.24
2017-03-27T00:52:08.424Z,833.22
2017-03-27T00:52:12.854Z,833.22
2017-03-27T00:52:17.066Z,833.22
2017-03-27T00:52:21.535Z,833.2
2017-03-27T00:52:25.961Z,833.24
2017-03-27T00:52:30.174Z,833.25
2017-03-27T00:52:34.368Z,833.23
2017-03-27T00:52:38.690Z,833.2
2017-03-27T00:52:43.124Z,833.2
2017-03-27T00:52:47.454Z,833.19
2017-03-27T00:52:51.884Z,833.19
2017-03-27T00:52:56.206Z,833.2
2017-03-27T00:53:00.656Z,833.19
2017-03-27T00:53:05.087Z,833.17
2017-03-27T00:53:09.523Z,833.13
2017-03-27T00:53:13.968Z,833.15
2017-03-27T00:53:18.411Z,833.17
2017-03-27T00:53:22.627Z,833.19
2017-03-27T00:53:27.069Z,833.18
2017-03-27T00:53:31.513Z,833.18
2017-03-27T00:53:35.967Z,833.18
2017-03-27T00:53:40.402Z,833.2
2017-03-27T00:53:44.616Z,833.17
2017-03-27T00:53:49.078Z,833.15
2017-03-27T00:53:53.517Z,833.09
2017-03-27T00:53:57.967Z,833.15
2017-03-27T00:54:02.275Z,833.15
2017-03-27T00:54:06.601Z,833.2
2017-03-27T00:54:10.686Z,833.2
2017-03-27T00:54:15.003Z,833.18
2017-03-27T00:54:19.444Z,833.17
2017-03-27T00:54:23.883Z,833.17
2017-03-27T00:54:28.330Z,833.2
2017-03-27T00:54:32.759Z,833.14
2017-03-27T00:54:37.187Z,833.17
2017-03-27T00:54:41.156Z,833.15